createdAt,value
2018-12-02T00:00:24.474Z,100408.12
2018-12-02T00:02:52.602Z,100400.84
2018-12-02T00:05:20.430Z,100400.88
2018-12-02T00:07:48.478Z,100400.05
2018-12-02T00:10:17.178Z,100405.20
2018-12-02T00:12:44.916Z,100406.92
2018-12-02T00:15:15.693Z,100408.19
2018-12-02T00:17:43.519Z,100405.64
2018-12-02T00:20:12.871Z,100405.70
2018-12-02T00:22:40.617Z,100400.45
2018-12-02T00:25:12.975Z,100404.30
2018-12-02T00:27:41.574Z,100390.92
2018-12-02T00:30:11.773Z,100398.73
2018-12-02T00:32:39.476Z,100390.45
2018-12-02T00:35:08.878Z,100386.49
2018-12-02T00:37:36.700Z,100382.72
2018-12-02T00:40:09.267Z,100385.72
2018-12-02T00:42:37.027Z,100385.42
2018-12-02T00:45:07.472Z,100397.08
2018-12-02T00:47:35.204Z,100393.13
2018-12-02T00:50:03.149Z,100392.65
2018-12-02T00:52:30.865Z,100389.56
2018-12-02T00:54:58.599Z,100390.55
2018-12-02T00:57:26.339Z,100392.25
2018-12-02T00:59:54.146Z,100389.09
2018-12-02T01:02:21.896Z,100386.58
2018-12-02T01:04:49.645Z,100384.88
2018-12-02T01:07:17.393Z,100388.39
2018-12-02T01:09:45.130Z,100383.61
2018-12-02T01:12:12.908Z,100385.77
2018-12-02T01:14:40.615Z,100375.68
2018-12-02T01:17:08.350Z,100367.86
2018-12-02T01:19:36.092Z,100376.16
2018-12-02T01:22:03.896Z,100370.13
2018-12-02T01:24:31.624Z,100369.69
2018-12-02T01:26:59.370Z,100362.37
2018-12-02T01:29:27.080Z,100363.73
2018-12-02T01:31:54.842Z,100359.80
2018-12-02T01:34:22.576Z,100359.84
2018-12-02T01:36:50.320Z,100360.84
2018-12-02T01:39:18.236Z,100361.73
2018-12-02T01:41:45.966Z,100359.39
2018-12-02T01:44:13.681Z,100356.70
2018-12-02T01:46:41.443Z,100364.05
2018-12-02T01:49:09.165Z,100351.53
2018-12-02T01:51:36.880Z,100348.43
2018-12-02T01:54:05.132Z,100352.48
2018-12-02T01:56:32.944Z,100349.88
2018-12-02T01:59:00.670Z,100350.17
2018-12-02T02:01:28.402Z,100356.30
2018-12-02T02:03:56.140Z,100351.95
2018-12-02T02:06:23.875Z,100353.63
2018-12-02T02:08:51.629Z,100351.91
2018-12-02T02:11:19.366Z,100359.40
2018-12-02T02:13:47.118Z,100361.63
2018-12-02T02:16:14.881Z,100360.34
2018-12-02T02:18:42.618Z,100360.73
2018-12-02T02:21:10.453Z,100362.52
2018-12-02T02:23:38.216Z,100360.48
2018-12-02T02:26:05.999Z,100357.39
2018-12-02T02:28:33.735Z,100363.86
2018-12-02T02:31:01.460Z,100356.48
2018-12-02T02:33:29.194Z,100348.19
2018-12-02T02:35:56.926Z,100356.86
2018-12-02T02:38:24.669Z,100349.84
2018-12-02T02:40:52.417Z,100342.00
2018-12-02T02:43:20.169Z,100347.35
2018-12-02T02:45:47.938Z,100347.83
2018-12-02T02:48:15.682Z,100349.83
2018-12-02T02:50:43.419Z,100346.14
2018-12-02T02:53:11.222Z,100348.42
2018-12-02T02:55:38.972Z,100346.66
2018-12-02T02:58:06.734Z,100348.39
2018-12-02T03:00:34.488Z,100349.65
2018-12-02T03:03:02.202Z,100342.70
2018-12-02T03:05:29.955Z,100346.17
2018-12-02T03:07:57.681Z,100350.94
2018-12-02T03:10:25.443Z,100345.23
2018-12-02T03:12:53.817Z,100346.03
2018-12-02T03:15:22.276Z,100343.46
2018-12-02T03:17:50.032Z,100343.83
2018-12-02T03:20:19.576Z,100344.58
2018-12-02T03:22:50.017Z,100344.66
2018-12-02T03:25:18.627Z,100338.42
2018-12-02T03:27:46.369Z,100341.70
2018-12-02T03:30:19.053Z,100342.88
2018-12-02T03:32:46.985Z,100348.02
2018-12-02T03:35:19.454Z,100355.36
2018-12-02T03:37:47.199Z,100349.26
2018-12-02T03:40:16.956Z,100351.25
2018-12-02T03:42:44.753Z,100360.38
2018-12-02T03:45:13.713Z,100356.55
2018-12-02T03:47:41.441Z,100359.08
2018-12-02T03:50:17.472Z,100362.39
2018-12-02T03:52:41.214Z,100363.34
2018-12-02T03:55:09.186Z,100363.44
2018-12-02T03:57:36.965Z,100363.74
2018-12-02T04:00:14.522Z,100360.61
2018-12-02T04:02:42.291Z,100361.97
2018-12-02T04:05:10.912Z,100359.81
2018-12-02T04:07:38.671Z,100364.58
2018-12-02T04:10:11.472Z,100369.27
2018-12-02T04:12:39.241Z,100365.48
2018-12-02T04:15:11.038Z,100362.77
2018-12-02T04:17:38.806Z,100362.19
2018-12-02T04:20:08.401Z,100363.20
2018-12-02T04:22:36.292Z,100360.97
2018-12-02T04:25:04.688Z,100353.67
2018-12-02T04:27:32.436Z,100354.90
2018-12-02T04:30:00.148Z,100353.54
2018-12-02T04:32:27.894Z,100353.29
2018-12-02T04:34:55.683Z,100349.87
2018-12-02T04:37:23.446Z,100348.48
2018-12-02T04:39:51.203Z,100350.35
2018-12-02T04:42:18.985Z,100350.64
2018-12-02T04:44:46.745Z,100354.09
2018-12-02T04:47:14.498Z,100350.77
2018-12-02T04:49:42.223Z,100350.35
2018-12-02T04:52:09.950Z,100358.70
2018-12-02T04:54:37.675Z,100359.12
2018-12-02T04:57:05.867Z,100359.58
2018-12-02T04:59:33.612Z,100354.41
2018-12-02T05:02:01.442Z,100352.59
2018-12-02T05:04:29.191Z,100354.83
2018-12-02T05:06:56.939Z,100359.78
2018-12-02T05:09:24.721Z,100355.94
2018-12-02T05:11:52.457Z,100361.12
2018-12-02T05:14:20.201Z,100357.06
2018-12-02T05:16:47.940Z,100353.16
2018-12-02T05:19:15.658Z,100358.28
2018-12-02T05:21:43.394Z,100359.16
2018-12-02T05:24:11.178Z,100352.70
2018-12-02T05:26:38.920Z,100351.65
2018-12-02T05:29:06.659Z,100354.15
2018-12-02T05:31:34.377Z,100362.87
2018-12-02T05:34:02.324Z,100370.53
2018-12-02T05:36:30.048Z,100375.32
2018-12-02T05:38:57.800Z,100374.45
2018-12-02T05:41:30.894Z,100375.13
2018-12-02T05:43:58.625Z,100379.66
2018-12-02T05:46:26.394Z,100382.03
2018-12-02T05:48:54.127Z,100380.25
2018-12-02T05:51:21.870Z,100388.48
2018-12-02T05:53:49.625Z,100396.61
2018-12-02T05:56:17.360Z,100398.36
2018-12-02T05:58:45.091Z,100403.86
2018-12-02T06:01:12.866Z,100410.73
2018-12-02T06:03:40.595Z,100416.61
2018-12-02T06:06:08.347Z,100423.34
2018-12-02T06:08:36.092Z,100422.72
2018-12-02T06:11:03.893Z,100423.75
2018-12-02T06:13:31.618Z,100428.05
2018-12-02T06:15:59.352Z,100425.61
2018-12-02T06:18:27.078Z,100432.17
2018-12-02T06:20:54.820Z,100436.08
2018-12-02T06:23:22.607Z,100438.76
2018-12-02T06:25:50.363Z,100433.30
2018-12-02T06:28:18.110Z,100441.92
2018-12-02T06:30:45.843Z,100436.81
2018-12-02T06:33:13.640Z,100440.37
2018-12-02T06:35:41.363Z,100436.76
2018-12-02T06:38:09.116Z,100436.59
2018-12-02T06:40:36.828Z,100443.96
2018-12-02T06:43:04.632Z,100443.69
2018-12-02T06:45:32.360Z,100441.95
2018-12-02T06:48:00.103Z,100443.90
2018-12-02T06:50:28.002Z,100442.58
2018-12-02T06:52:56.487Z,100444.74
2018-12-02T06:55:34.028Z,100446.23
2018-12-02T06:59:19.454Z,100448.36
2018-12-02T07:01:59.304Z,100460.02
2018-12-02T07:04:28.570Z,100467.78
2018-12-02T07:06:56.783Z,100463.63
2018-12-02T07:09:24.539Z,100461.04
2018-12-02T07:11:52.278Z,100463.99
2018-12-02T07:14:20.022Z,100470.05
2018-12-02T07:16:47.779Z,100466.63
2018-12-02T07:19:22.992Z,100473.49
2018-12-02T07:21:57.664Z,100478.27
2018-12-02T07:24:28.838Z,100476.98
2018-12-02T07:26:58.942Z,100479.59
2018-12-02T07:29:26.684Z,100474.04
2018-12-02T07:31:54.518Z,100474.40
2018-12-02T07:34:22.282Z,100475.77
2018-12-02T07:36:50.037Z,100466.70
2018-12-02T07:39:58.691Z,100473.16
2018-12-02T07:42:26.438Z,100474.05
2018-12-02T07:44:54.637Z,100471.92
2018-12-02T07:47:22.424Z,100483.14
2018-12-02T07:49:50.148Z,100478.81
2018-12-02T07:52:17.902Z,100477.98
2018-12-02T07:54:45.626Z,100477.13
2018-12-02T07:57:14.367Z,100472.81
2018-12-02T07:59:42.152Z,100474.11
2018-12-02T08:02:09.930Z,100471.52
2018-12-02T08:04:38.017Z,100470.21
2018-12-02T08:07:06.009Z,100465.89
2018-12-02T08:09:33.787Z,100470.61
2018-12-02T08:12:01.532Z,100463.69
2018-12-02T08:14:29.248Z,100459.34
2018-12-02T08:16:56.968Z,100467.55
2018-12-02T08:19:24.725Z,100465.80
2018-12-02T08:21:52.503Z,100466.67
2018-12-02T08:24:20.226Z,100467.13
2018-12-02T08:26:47.956Z,100468.41
2018-12-02T08:29:15.691Z,100475.33
2018-12-02T08:31:43.429Z,100480.48
2018-12-02T08:34:11.164Z,100480.47
2018-12-02T08:36:38.921Z,100474.38
2018-12-02T08:39:09.488Z,100474.83
2018-12-02T08:41:37.228Z,100473.99
2018-12-02T08:44:05.500Z,100464.02
2018-12-02T08:46:33.218Z,100455.78
2018-12-02T08:49:00.936Z,100455.32
2018-12-02T08:51:28.671Z,100450.17
2018-12-02T08:53:56.393Z,100442.39
2018-12-02T08:56:24.182Z,100440.20
2018-12-02T08:58:51.916Z,100435.00
2018-12-02T09:01:19.640Z,100436.72
2018-12-02T09:03:47.376Z,100438.02
2018-12-02T09:06:15.132Z,100434.06
2018-12-02T09:08:42.860Z,100435.06
2018-12-02T09:11:10.629Z,100432.88
2018-12-02T09:13:38.377Z,100427.30
2018-12-02T09:16:06.167Z,100418.09
2018-12-02T09:18:33.914Z,100423.73
2018-12-02T09:21:01.659Z,100411.30
2018-12-02T09:23:29.392Z,100409.77
2018-12-02T09:25:57.143Z,100401.62
2018-12-02T09:28:24.913Z,100397.95
2018-12-02T09:30:52.681Z,100397.54
2018-12-02T09:33:20.441Z,100391.06
2018-12-02T09:35:48.191Z,100389.52
2018-12-02T09:38:15.952Z,100391.14
2018-12-02T09:40:43.685Z,100381.59
2018-12-02T09:43:11.452Z,100388.80
2018-12-02T09:45:39.210Z,100380.89
2018-12-02T09:48:06.957Z,100377.27
2018-12-02T09:50:34.719Z,100373.02
2018-12-02T09:53:02.476Z,100374.05
2018-12-02T09:55:32.074Z,100377.33
2018-12-02T09:57:59.820Z,100374.72
2018-12-02T10:00:27.580Z,100373.17
2018-12-02T10:02:55.338Z,100380.98
2018-12-02T10:05:23.118Z,100376.92
2018-12-02T10:07:50.851Z,100372.19
2018-12-02T10:10:22.520Z,100371.88
2018-12-02T10:12:53.852Z,100367.13
2018-12-02T10:15:21.629Z,100361.06
2018-12-02T10:17:49.359Z,100366.41
2018-12-02T10:20:17.146Z,100357.12
2018-12-02T10:22:47.139Z,100356.41
2018-12-02T10:25:17.482Z,100355.14
2018-12-02T10:27:53.238Z,100354.20
2018-12-02T10:30:22.865Z,100357.48
2018-12-02T10:32:51.272Z,100356.25
2018-12-02T10:35:19.072Z,100348.84
2018-12-02T10:37:47.122Z,100348.55
2018-12-02T10:40:19.031Z,100342.04
2018-12-02T10:42:47.148Z,100346.38
2018-12-02T10:45:16.079Z,100339.97
2018-12-02T10:47:43.831Z,100336.83
2018-12-02T10:50:21.540Z,100329.92
2018-12-02T10:52:49.924Z,100330.42
2018-12-02T10:55:22.532Z,100325.14
2018-12-02T10:57:50.266Z,100322.94
2018-12-02T11:00:23.562Z,100319.47
2018-12-02T11:02:51.290Z,100310.67
2018-12-02T11:05:19.049Z,100305.53
2018-12-02T11:07:46.805Z,100295.05
2018-12-02T11:10:14.562Z,100296.78
2018-12-02T11:12:42.323Z,100295.26
2018-12-02T11:15:15.180Z,100284.28
2018-12-02T11:17:44.582Z,100285.95
2018-12-02T11:20:13.732Z,100281.83
2018-12-02T11:22:41.482Z,100281.48
2018-12-02T11:25:13.073Z,100277.33
2018-12-02T11:27:40.960Z,100276.73
2018-12-02T11:30:12.617Z,100279.31
2018-12-02T11:32:40.456Z,100279.16
2018-12-02T11:35:10.866Z,100277.53
2018-12-02T11:37:38.658Z,100279.70
2018-12-02T11:40:09.135Z,100272.20
2018-12-02T11:42:36.866Z,100275.25
2018-12-02T11:45:06.932Z,100277.09
2018-12-02T11:47:34.726Z,100273.98
2018-12-02T11:50:02.608Z,100276.23
2018-12-02T11:52:30.355Z,100269.01
2018-12-02T11:54:58.104Z,100275.05
2018-12-02T11:57:26.651Z,100277.05
2018-12-02T11:59:53.637Z,100271.80
2018-12-02T12:02:21.388Z,100274.53
2018-12-02T12:04:49.109Z,100273.82
2018-12-02T12:07:16.860Z,100267.31
2018-12-02T12:09:44.594Z,100269.80
2018-12-02T12:12:12.330Z,100271.92
2018-12-02T12:14:40.063Z,100273.89
2018-12-02T12:17:07.806Z,100265.67
2018-12-02T12:19:35.612Z,100263.89
2018-12-02T12:22:03.386Z,100270.89
2018-12-02T12:24:31.151Z,100268.02
2018-12-02T12:26:58.906Z,100261.72
2018-12-02T12:29:26.628Z,100259.20
2018-12-02T12:31:54.349Z,100259.30
2018-12-02T12:34:22.088Z,100258.72
2018-12-02T12:36:49.830Z,100253.69
2018-12-02T12:39:17.564Z,100251.33
2018-12-02T12:41:45.280Z,100250.55
2018-12-02T12:44:13.039Z,100248.52
2018-12-02T12:46:40.788Z,100261.03
2018-12-02T12:49:08.524Z,100249.56
2018-12-02T12:51:39.800Z,100253.13
2018-12-02T12:54:10.622Z,100252.30
2018-12-02T12:56:38.377Z,100249.17
2018-12-02T12:59:06.139Z,100250.69
2018-12-02T13:01:33.890Z,100247.61
2018-12-02T13:04:01.634Z,100246.83
2018-12-02T13:06:29.438Z,100246.17
2018-12-02T13:08:57.194Z,100250.77
2018-12-02T13:11:24.958Z,100248.20
2018-12-02T13:13:52.698Z,100251.91
2018-12-02T13:16:20.473Z,100247.73
2018-12-02T13:18:48.242Z,100251.48
2018-12-02T13:21:15.961Z,100248.77
2018-12-02T13:23:43.714Z,100240.74
2018-12-02T13:26:11.483Z,100243.12
2018-12-02T13:28:39.212Z,100242.59
2018-12-02T13:31:08.528Z,100243.61
2018-12-02T13:33:37.516Z,100239.83
2018-12-02T13:36:05.984Z,100237.27
2018-12-02T13:38:34.373Z,100230.80
2018-12-02T13:41:03.842Z,100233.84
2018-12-02T13:43:33.098Z,100229.02
2018-12-02T13:46:01.415Z,100222.97
2018-12-02T13:48:29.797Z,100223.71
2018-12-02T13:50:57.527Z,100218.15
2018-12-02T13:53:25.280Z,100223.27
2018-12-02T13:55:53.063Z,100220.05
2018-12-02T13:58:20.796Z,100221.27
2018-12-02T14:00:48.552Z,100214.42
2018-12-02T14:03:16.319Z,100214.33
2018-12-02T14:05:46.786Z,100214.89
2018-12-02T14:08:14.617Z,100210.28
2018-12-02T14:10:42.718Z,100217.02
2018-12-02T14:13:15.988Z,100217.10
2018-12-02T14:16:21.236Z,100210.80
2018-12-02T14:18:49.536Z,100206.06
2018-12-02T14:21:17.257Z,100213.05
2018-12-02T14:23:45.069Z,100207.00
2018-12-02T14:26:15.895Z,100213.20
2018-12-02T14:29:08.838Z,100213.67
2018-12-02T14:31:37.627Z,100217.61
2018-12-02T14:34:05.960Z,100217.22
2018-12-02T14:36:33.698Z,100214.19
2018-12-02T14:39:01.548Z,100217.30
2018-12-02T14:41:29.269Z,100218.27
2018-12-02T14:43:57.000Z,100211.26
2018-12-02T14:46:24.757Z,100220.33
2018-12-02T14:48:52.954Z,100211.26
2018-12-02T14:51:20.681Z,100220.48
2018-12-02T14:53:48.417Z,100215.89
2018-12-02T14:56:16.176Z,100213.76
2018-12-02T14:58:43.900Z,100219.53
2018-12-02T15:01:11.647Z,100215.90
2018-12-02T15:03:39.374Z,100207.16
2018-12-02T15:06:07.118Z,100210.49
2018-12-02T15:08:34.868Z,100207.59
2018-12-02T15:11:02.631Z,100218.30
2018-12-02T15:13:30.372Z,100214.00
2018-12-02T15:15:58.110Z,100218.00
2018-12-02T15:18:25.832Z,100219.92
2018-12-02T15:20:53.565Z,100215.84
2018-12-02T15:23:21.291Z,100218.91
2018-12-02T15:25:49.027Z,100209.27
2018-12-02T15:28:16.769Z,100208.38
2018-12-02T15:30:44.565Z,100210.23
2018-12-02T15:33:12.300Z,100209.39
2018-12-02T15:35:40.043Z,100207.20
2018-12-02T15:38:07.799Z,100210.78
2018-12-02T15:40:35.606Z,100210.00
2018-12-02T15:43:03.324Z,100217.07
2018-12-02T15:45:31.099Z,100219.53
2018-12-02T15:47:58.829Z,100213.36
2018-12-02T15:50:26.572Z,100217.39
2018-12-02T15:52:54.328Z,100219.31
2018-12-02T15:55:26.819Z,100216.72
2018-12-02T15:57:54.724Z,100220.02
2018-12-02T16:00:25.443Z,100217.96
2018-12-02T16:02:53.218Z,100219.82
2018-12-02T16:05:20.982Z,100218.88
2018-12-02T16:07:48.742Z,100218.78
2018-12-02T16:10:16.521Z,100224.53
2018-12-02T16:12:45.570Z,100226.77
2018-12-02T16:15:17.318Z,100226.46
2018-12-02T16:17:46.086Z,100225.64
2018-12-02T16:20:17.139Z,100223.45
2018-12-02T16:22:44.926Z,100220.77
2018-12-02T16:25:12.660Z,100223.44
2018-12-02T16:27:40.422Z,100228.22
2018-12-02T16:30:10.816Z,100226.97
2018-12-02T16:32:38.578Z,100233.42
2018-12-02T16:35:07.968Z,100233.05
2018-12-02T16:37:35.721Z,100236.94
2018-12-02T16:40:03.858Z,100239.93
2018-12-02T16:42:31.573Z,100240.54
2018-12-02T16:44:59.300Z,100250.56
2018-12-02T16:47:27.029Z,100248.02
2018-12-02T16:49:54.748Z,100249.19
2018-12-02T16:52:23.248Z,100256.78
2018-12-02T16:54:51.009Z,100256.36
2018-12-02T16:57:20.342Z,100263.61
2018-12-02T16:59:48.075Z,100256.02
2018-12-02T17:02:15.810Z,100254.69
2018-12-02T17:04:43.585Z,100266.66
2018-12-02T17:07:12.219Z,100264.50
2018-12-02T17:09:40.021Z,100269.83
2018-12-02T17:12:07.806Z,100277.44
2018-12-02T17:14:38.653Z,100273.52
2018-12-02T17:17:03.421Z,100267.14
2018-12-02T17:19:31.166Z,100266.72
2018-12-02T17:21:58.913Z,100263.73
2018-12-02T17:24:26.654Z,100271.89
2018-12-02T17:26:54.407Z,100267.13
2018-12-02T17:29:22.199Z,100268.91
2018-12-02T17:31:54.852Z,100265.10
2018-12-02T17:34:22.653Z,100266.47
2018-12-02T17:36:50.403Z,100273.01
2018-12-02T17:39:21.594Z,100271.22
2018-12-02T17:41:55.710Z,100276.38
2018-12-02T17:44:23.456Z,100277.22
2018-12-02T17:46:51.240Z,100275.95
2018-12-02T17:49:20.035Z,100273.88
2018-12-02T17:51:47.799Z,100276.97
2018-12-02T17:54:15.549Z,100278.27
2018-12-02T17:56:43.392Z,100284.73
2018-12-02T17:59:11.189Z,100283.38
2018-12-02T18:01:38.951Z,100285.56
2018-12-02T18:04:07.367Z,100284.37
2018-12-02T18:06:35.304Z,100286.99
2018-12-02T18:09:03.312Z,100287.45
2018-12-02T18:11:31.070Z,100285.33
2018-12-02T18:13:58.823Z,100286.59
2018-12-02T18:16:27.691Z,100292.98
2018-12-02T18:18:56.402Z,100286.53
2018-12-02T18:21:24.155Z,100285.67
2018-12-02T18:23:51.894Z,100290.43
2018-12-02T18:26:19.738Z,100289.06
2018-12-02T18:28:47.513Z,100288.31
2018-12-02T18:31:15.269Z,100292.62
2018-12-02T18:33:43.028Z,100300.84
2018-12-02T18:36:12.844Z,100304.31
2018-12-02T18:38:42.126Z,100296.96
2018-12-02T18:41:19.584Z,100293.47
2018-12-02T18:43:47.338Z,100301.33
2018-12-02T18:46:15.847Z,100297.79
2018-12-02T18:48:43.583Z,100293.05
2018-12-02T18:51:11.332Z,100299.13
2018-12-02T18:53:39.501Z,100300.34
2018-12-02T18:56:07.248Z,100299.06
2018-12-02T18:58:34.980Z,100302.18
2018-12-02T19:01:02.792Z,100297.41
2018-12-02T19:03:30.520Z,100300.00
2018-12-02T19:05:58.270Z,100302.55
2018-12-02T19:08:26.005Z,100297.42
2018-12-02T19:10:56.637Z,100291.00
2018-12-02T19:13:24.376Z,100289.28
2018-12-02T19:15:52.131Z,100291.83
2018-12-02T19:18:19.993Z,100294.92
2018-12-02T19:20:49.388Z,100300.06
2018-12-02T19:23:22.285Z,100300.88
2018-12-02T19:25:50.064Z,100297.88
2018-12-02T19:28:17.806Z,100299.20
2018-12-02T19:30:45.539Z,100292.76
2018-12-02T19:33:15.643Z,100290.60
2018-12-02T19:35:44.029Z,100289.27
2018-12-02T19:38:18.512Z,100284.50
2018-12-02T19:40:47.148Z,100286.23
2018-12-02T19:43:14.932Z,100291.42
2018-12-02T19:45:42.704Z,100294.89
2018-12-02T19:48:10.461Z,100297.91
2018-12-02T19:50:38.311Z,100300.07
2018-12-02T19:53:06.102Z,100303.11
2018-12-02T19:55:34.810Z,100313.07
2018-12-02T19:58:02.603Z,100308.31
2018-12-02T20:00:36.684Z,100305.29
2018-12-02T20:03:04.444Z,100305.26
2018-12-02T20:05:32.178Z,100302.59
2018-12-02T20:08:01.021Z,100300.48
2018-12-02T20:10:30.047Z,100309.56
2018-12-02T20:12:59.436Z,100300.95
2018-12-02T20:15:27.178Z,100298.40
2018-12-02T20:17:54.987Z,100299.23
2018-12-02T20:20:58.822Z,100299.25
2018-12-02T20:23:32.099Z,100297.52
2018-12-02T20:26:00.824Z,100292.34
2018-12-02T20:28:36.220Z,100294.06
2018-12-02T20:31:10.225Z,100289.74
2018-12-02T20:33:37.986Z,100293.59
2018-12-02T20:36:06.481Z,100299.23
2018-12-02T20:38:34.227Z,100290.57
2018-12-02T20:41:02.033Z,100285.86
2018-12-02T20:43:30.385Z,100276.83
2018-12-02T20:45:58.120Z,100281.98
2018-12-02T20:48:25.877Z,100286.73
2018-12-02T20:50:53.622Z,100285.00
2018-12-02T20:53:21.390Z,100278.53
2018-12-02T20:55:49.151Z,100280.28
2018-12-02T20:58:16.881Z,100282.00
2018-12-02T21:00:44.630Z,100290.63
2018-12-02T21:03:15.065Z,100284.16
2018-12-02T21:05:52.538Z,100281.57
2018-12-02T21:08:20.272Z,100285.00
2018-12-02T21:10:48.015Z,100289.32
2018-12-02T21:13:15.742Z,100286.75
2018-12-02T21:15:43.667Z,100291.03
2018-12-02T21:18:11.452Z,100284.57
2018-12-02T21:20:39.184Z,100285.86
2018-12-02T21:23:06.960Z,100287.17
2018-12-02T21:25:34.698Z,100280.69
2018-12-02T21:28:02.465Z,100283.30
2018-12-02T21:30:30.469Z,100284.59
2018-12-02T21:32:58.212Z,100289.77
2018-12-02T21:35:25.979Z,100285.44
2018-12-02T21:37:55.193Z,100281.99
2018-12-02T21:40:23.060Z,100279.42
2018-12-02T21:42:50.812Z,100284.12
2018-12-02T21:45:18.658Z,100275.94
2018-12-02T21:47:48.469Z,100280.26
2018-12-02T21:50:19.591Z,100271.20
2018-12-02T21:52:47.358Z,100274.20
2018-12-02T21:55:15.167Z,100277.23
2018-12-02T21:57:42.913Z,100263.44
2018-12-02T22:00:20.172Z,100269.06
2018-12-02T22:02:48.379Z,100262.16
2018-12-02T22:05:16.202Z,100261.27
2018-12-02T22:07:44.094Z,100264.30
2018-12-02T22:10:18.237Z,100263.45
2018-12-02T22:12:46.017Z,100260.42
2018-12-02T22:15:13.793Z,100258.70
2018-12-02T22:17:41.524Z,100260.42
2018-12-02T22:20:13.376Z,100264.72
2018-12-02T22:22:41.224Z,100257.83
2018-12-02T22:25:10.998Z,100248.77
2018-12-02T22:27:38.751Z,100247.42
2018-12-02T22:30:09.794Z,100244.45
2018-12-02T22:32:37.576Z,100241.03
2018-12-02T22:35:07.426Z,100228.95
2018-12-02T22:37:35.202Z,100226.77
2018-12-02T22:40:03.450Z,100222.45
2018-12-02T22:42:31.166Z,100215.14
2018-12-02T22:44:58.908Z,100211.66
2018-12-02T22:47:26.653Z,100217.72
2018-12-02T22:49:54.471Z,100212.57
2018-12-02T22:52:22.221Z,100211.25
2018-12-02T22:54:49.958Z,100208.24
2018-12-02T22:57:17.689Z,100207.80
2018-12-02T22:59:45.449Z,100204.79
2018-12-02T23:02:16.938Z,100194.87
2018-12-02T23:04:45.111Z,100192.25
2018-12-02T23:07:12.878Z,100189.25
2018-12-02T23:09:40.652Z,100193.97
2018-12-02T23:12:08.456Z,100191.76
2018-12-02T23:14:36.221Z,100192.25
2018-12-02T23:17:24.874Z,100199.62
2018-12-02T23:19:53.387Z,100192.70
2018-12-02T23:22:21.989Z,100200.87
2018-12-02T23:24:51.046Z,100201.70
2018-12-02T23:27:18.899Z,100204.37
2018-12-02T23:29:46.703Z,100211.68
2018-12-02T23:32:14.468Z,100221.13
2018-12-02T23:34:42.239Z,100213.84
2018-12-02T23:37:09.981Z,100218.08
2018-12-02T23:39:38.711Z,100221.97
2018-12-02T23:42:06.478Z,100209.09
2018-12-02T23:44:34.246Z,100210.84
2018-12-02T23:47:02.009Z,100209.54
2018-12-02T23:49:29.775Z,100205.23
2018-12-02T23:51:57.559Z,100212.53
2018-12-02T23:54:25.316Z,100204.34
2018-12-02T23:56:53.073Z,100205.23
2018-12-02T23:59:20.834Z,100205.63
